sensor_id;sensor_type;location;lat;lon;timestamp;temperature;humidity
21676;DHT22;10999;51.332;9.458;2024-03-22T00:00:45;6.70;91.80
21676;DHT22;10999;51.332;9.458;2024-03-22T00:03:11;6.70;92.00
21676;DHT22;10999;51.332;9.458;2024-03-22T00:05:37;6.70;92.00
21676;DHT22;10999;51.332;9.458;2024-03-22T00:08:03;6.70;91.80
21676;DHT22;10999;51.332;9.458;2024-03-22T00:10:29;6.70;91.70
21676;DHT22;10999;51.332;9.458;2024-03-22T00:12:55;6.80;91.80
21676;DHT22;10999;51.332;9.458;2024-03-22T00:15:20;6.70;91.80
21676;DHT22;10999;51.332;9.458;2024-03-22T00:17:46;6.70;92.10
21676;DHT22;10999;51.332;9.458;2024-03-22T00:20:12;6.80;91.80
21676;DHT22;10999;51.332;9.458;2024-03-22T00:22:38;6.70;92.30
21676;DHT22;10999;51.332;9.458;2024-03-22T00:25:04;6.80;92.30
21676;DHT22;10999;51.332;9.458;2024-03-22T00:27:32;6.80;92.40
21676;DHT22;10999;51.332;9.458;2024-03-22T00:29:57;6.80;92.20
21676;DHT22;10999;51.332;9.458;2024-03-22T00:32:23;6.80;92.00
21676;DHT22;10999;51.332;9.458;2024-03-22T00:34:49;6.80;92.00
21676;DHT22;10999;51.332;9.458;2024-03-22T00:37:15;6.90;92.20
21676;DHT22;10999;51.332;9.458;2024-03-22T00:39:40;6.90;92.20
21676;DHT22;10999;51.332;9.458;2024-03-22T00:42:06;6.90;92.10
21676;DHT22;10999;51.332;9.458;2024-03-22T00:44:32;6.90;92.10
21676;DHT22;10999;51.332;9.458;2024-03-22T00:46:58;6.90;92.00
21676;DHT22;10999;51.332;9.458;2024-03-22T00:49:23;6.90;91.80
21676;DHT22;10999;51.332;9.458;2024-03-22T00:51:49;6.90;92.20
21676;DHT22;10999;51.332;9.458;2024-03-22T00:54:15;6.90;92.40
21676;DHT22;10999;51.332;9.458;2024-03-22T00:56:41;6.90;92.20
21676;DHT22;10999;51.332;9.458;2024-03-22T00:59:06;6.90;92.10
21676;DHT22;10999;51.332;9.458;2024-03-22T01:01:32;6.90;92.10
21676;DHT22;10999;51.332;9.458;2024-03-22T01:03:58;6.90;92.00
21676;DHT22;10999;51.332;9.458;2024-03-22T01:06:24;7.00;92.00
21676;DHT22;10999;51.332;9.458;2024-03-22T01:08:50;7.00;91.80
21676;DHT22;10999;51.332;9.458;2024-03-22T01:11:18;7.00;91.80
21676;DHT22;10999;51.332;9.458;2024-03-22T01:13:44;7.00;91.70
21676;DHT22;10999;51.332;9.458;2024-03-22T01:16:09;7.10;91.80
21676;DHT22;10999;51.332;9.458;2024-03-22T01:18:37;7.10;91.80
21676;DHT22;10999;51.332;9.458;2024-03-22T01:21:03;7.10;91.70
21676;DHT22;10999;51.332;9.458;2024-03-22T01:23:29;7.10;91.90
21676;DHT22;10999;51.332;9.458;2024-03-22T01:25:55;7.10;92.20
21676;DHT22;10999;51.332;9.458;2024-03-22T01:28:21;7.10;92.30
21676;DHT22;10999;51.332;9.458;2024-03-22T01:30:47;7.10;92.30
21676;DHT22;10999;51.332;9.458;2024-03-22T01:33:13;7.10;92.50
21676;DHT22;10999;51.332;9.458;2024-03-22T01:35:39;7.10;92.50
21676;DHT22;10999;51.332;9.458;2024-03-22T01:38:04;7.10;92.40
21676;DHT22;10999;51.332;9.458;2024-03-22T01:40:30;7.20;92.40
21676;DHT22;10999;51.332;9.458;2024-03-22T01:42:57;7.10;92.10
21676;DHT22;10999;51.332;9.458;2024-03-22T01:45:23;7.20;92.60
21676;DHT22;10999;51.332;9.458;2024-03-22T01:47:51;7.10;92.70
21676;DHT22;10999;51.332;9.458;2024-03-22T01:50:18;7.20;92.80
21676;DHT22;10999;51.332;9.458;2024-03-22T01:52:44;7.20;92.90
21676;DHT22;10999;51.332;9.458;2024-03-22T01:55:10;7.20;93.20
21676;DHT22;10999;51.332;9.458;2024-03-22T01:57:36;7.20;93.10
21676;DHT22;10999;51.332;9.458;2024-03-22T02:00:02;7.20;93.10
21676;DHT22;10999;51.332;9.458;2024-03-22T02:02:28;7.20;93.10
21676;DHT22;10999;51.332;9.458;2024-03-22T02:04:54;7.20;93.20
21676;DHT22;10999;51.332;9.458;2024-03-22T02:07:20;7.20;93.00
21676;DHT22;10999;51.332;9.458;2024-03-22T02:09:45;7.20;93.00
21676;DHT22;10999;51.332;9.458;2024-03-22T02:12:11;7.20;93.00
21676;DHT22;10999;51.332;9.458;2024-03-22T02:14:37;7.20;92.90
21676;DHT22;10999;51.332;9.458;2024-03-22T02:17:03;7.10;93.30
21676;DHT22;10999;51.332;9.458;2024-03-22T02:19:29;7.20;93.60
21676;DHT22;10999;51.332;9.458;2024-03-22T02:21:55;7.10;93.60
21676;DHT22;10999;51.332;9.458;2024-03-22T02:24:20;7.20;93.60
21676;DHT22;10999;51.332;9.458;2024-03-22T02:26:46;7.20;93.30
21676;DHT22;10999;51.332;9.458;2024-03-22T02:29:12;7.20;93.30
21676;DHT22;10999;51.332;9.458;2024-03-22T02:31:38;7.10;93.50
21676;DHT22;10999;51.332;9.458;2024-03-22T02:34:03;7.10;93.60
21676;DHT22;10999;51.332;9.458;2024-03-22T02:36:29;7.10;93.70
21676;DHT22;10999;51.332;9.458;2024-03-22T02:38:55;7.00;94.10
21676;DHT22;10999;51.332;9.458;2024-03-22T02:41:21;7.00;94.20
21676;DHT22;10999;51.332;9.458;2024-03-22T02:43:47;7.00;94.40
21676;DHT22;10999;51.332;9.458;2024-03-22T02:46:13;7.00;94.50
21676;DHT22;10999;51.332;9.458;2024-03-22T02:48:39;6.90;94.60
21676;DHT22;10999;51.332;9.458;2024-03-22T02:51:04;6.90;94.70
21676;DHT22;10999;51.332;9.458;2024-03-22T02:53:30;6.80;94.80
21676;DHT22;10999;51.332;9.458;2024-03-22T02:55:56;6.80;95.30
21676;DHT22;10999;51.332;9.458;2024-03-22T02:58:24;6.80;95.20
21676;DHT22;10999;51.332;9.458;2024-03-22T03:00:50;6.70;95.90
21676;DHT22;10999;51.332;9.458;2024-03-22T03:03:16;6.70;96.40
21676;DHT22;10999;51.332;9.458;2024-03-22T03:05:42;6.70;96.30
21676;DHT22;10999;51.332;9.458;2024-03-22T03:08:08;6.70;96.30
21676;DHT22;10999;51.332;9.458;2024-03-22T03:10:33;6.70;96.70
21676;DHT22;10999;51.332;9.458;2024-03-22T03:12:59;6.70;96.60
21676;DHT22;10999;51.332;9.458;2024-03-22T03:15:25;6.80;96.60
21676;DHT22;10999;51.332;9.458;2024-03-22T03:17:51;6.70;96.90
21676;DHT22;10999;51.332;9.458;2024-03-22T03:20:17;6.70;96.80
21676;DHT22;10999;51.332;9.458;2024-03-22T03:22:43;6.70;96.90
21676;DHT22;10999;51.332;9.458;2024-03-22T03:25:09;6.70;97.00
21676;DHT22;10999;51.332;9.458;2024-03-22T03:27:35;6.70;97.10
21676;DHT22;10999;51.332;9.458;2024-03-22T03:30:01;6.70;96.90
21676;DHT22;10999;51.332;9.458;2024-03-22T03:32:27;6.70;97.00
21676;DHT22;10999;51.332;9.458;2024-03-22T03:34:53;6.70;97.00
21676;DHT22;10999;51.332;9.458;2024-03-22T03:37:19;6.70;97.20
21676;DHT22;10999;51.332;9.458;2024-03-22T03:39:45;6.70;97.90
21676;DHT22;10999;51.332;9.458;2024-03-22T03:42:11;6.70;98.40
21676;DHT22;10999;51.332;9.458;2024-03-22T03:44:37;6.70;98.40
21676;DHT22;10999;51.332;9.458;2024-03-22T03:47:03;6.70;98.50
21676;DHT22;10999;51.332;9.458;2024-03-22T03:49:28;6.70;98.60
21676;DHT22;10999;51.332;9.458;2024-03-22T03:51:54;6.80;98.70
21676;DHT22;10999;51.332;9.458;2024-03-22T03:54:20;6.80;98.80
21676;DHT22;10999;51.332;9.458;2024-03-22T03:56:46;6.80;98.70
21676;DHT22;10999;51.332;9.458;2024-03-22T03:59:12;6.80;98.70
21676;DHT22;10999;51.332;9.458;2024-03-22T04:01:37;6.80;98.90
21676;DHT22;10999;51.332;9.458;2024-03-22T04:04:03;6.80;98.90
21676;DHT22;10999;51.332;9.458;2024-03-22T04:06:29;6.80;99.20
21676;DHT22;10999;51.332;9.458;2024-03-22T04:08:55;6.80;99.20
21676;DHT22;10999;51.332;9.458;2024-03-22T04:11:21;6.90;99.40
21676;DHT22;10999;51.332;9.458;2024-03-22T04:13:47;6.90;99.50
21676;DHT22;10999;51.332;9.458;2024-03-22T04:16:13;6.90;99.50
21676;DHT22;10999;51.332;9.458;2024-03-22T04:18:39;6.90;99.60
21676;DHT22;10999;51.332;9.458;2024-03-22T04:21:04;6.90;99.60
21676;DHT22;10999;51.332;9.458;2024-03-22T04:23:30;6.90;99.70
21676;DHT22;10999;51.332;9.458;2024-03-22T04:25:57;6.90;99.80
21676;DHT22;10999;51.332;9.458;2024-03-22T04:28:27;6.90;99.70
21676;DHT22;10999;51.332;9.458;2024-03-22T04:31:07;6.90;99.90
21676;DHT22;10999;51.332;9.458;2024-03-22T04:33:36;7.00;99.90
21676;DHT22;10999;51.332;9.458;2024-03-22T04:36:03;7.00;99.90
21676;DHT22;10999;51.332;9.458;2024-03-22T04:38:29;7.00;99.90
21676;DHT22;10999;51.332;9.458;2024-03-22T04:40:55;7.00;99.90
21676;DHT22;10999;51.332;9.458;2024-03-22T04:43:23;7.10;99.90
21676;DHT22;10999;51.332;9.458;2024-03-22T04:45:49;7.10;99.90
21676;DHT22;10999;51.332;9.458;2024-03-22T04:48:22;7.10;99.90
21676;DHT22;10999;51.332;9.458;2024-03-22T04:50:49;7.20;99.90
21676;DHT22;10999;51.332;9.458;2024-03-22T04:53:17;7.20;99.90
21676;DHT22;10999;51.332;9.458;2024-03-22T04:55:44;7.20;99.90
21676;DHT22;10999;51.332;9.458;2024-03-22T04:58:20;7.20;99.80
21676;DHT22;10999;51.332;9.458;2024-03-22T05:00:47;7.20;99.80
21676;DHT22;10999;51.332;9.458;2024-03-22T05:03:13;7.20;99.70
21676;DHT22;10999;51.332;9.458;2024-03-22T05:05:39;7.20;99.80
21676;DHT22;10999;51.332;9.458;2024-03-22T05:08:06;7.20;99.80
21676;DHT22;10999;51.332;9.458;2024-03-22T05:10:33;7.20;99.80
21676;DHT22;10999;51.332;9.458;2024-03-22T05:12:59;7.20;99.60
21676;DHT22;10999;51.332;9.458;2024-03-22T05:15:25;7.20;99.80
21676;DHT22;10999;51.332;9.458;2024-03-22T05:17:51;7.20;99.60
21676;DHT22;10999;51.332;9.458;2024-03-22T05:20:17;7.20;99.90
21676;DHT22;10999;51.332;9.458;2024-03-22T05:22:43;7.20;99.90
21676;DHT22;10999;51.332;9.458;2024-03-22T05:25:09;7.20;99.90
21676;DHT22;10999;51.332;9.458;2024-03-22T05:27:36;7.20;99.90
21676;DHT22;10999;51.332;9.458;2024-03-22T05:30:02;7.20;99.90
21676;DHT22;10999;51.332;9.458;2024-03-22T05:32:30;7.20;99.90
21676;DHT22;10999;51.332;9.458;2024-03-22T05:34:55;7.30;99.90
21676;DHT22;10999;51.332;9.458;2024-03-22T05:37:22;7.30;99.90
21676;DHT22;10999;51.332;9.458;2024-03-22T05:39:48;7.30;99.90
21676;DHT22;10999;51.332;9.458;2024-03-22T05:42:14;7.30;99.90
21676;DHT22;10999;51.332;9.458;2024-03-22T05:44:39;7.40;99.90
21676;DHT22;10999;51.332;9.458;2024-03-22T05:47:05;7.40;99.90
21676;DHT22;10999;51.332;9.458;2024-03-22T05:49:31;7.40;99.90
21676;DHT22;10999;51.332;9.458;2024-03-22T05:51:57;7.50;99.90
21676;DHT22;10999;51.332;9.458;2024-03-22T05:54:22;7.50;99.90
21676;DHT22;10999;51.332;9.458;2024-03-22T05:56:48;7.50;99.90
21676;DHT22;10999;51.332;9.458;2024-03-22T05:59:14;7.50;99.90
21676;DHT22;10999;51.332;9.458;2024-03-22T06:01:40;7.60;99.90
21676;DHT22;10999;51.332;9.458;2024-03-22T06:04:06;7.60;99.70
21676;DHT22;10999;51.332;9.458;2024-03-22T06:06:33;7.60;99.50
21676;DHT22;10999;51.332;9.458;2024-03-22T06:08:59;7.70;99.50
21676;DHT22;10999;51.332;9.458;2024-03-22T06:11:29;7.70;99.40
21676;DHT22;10999;51.332;9.458;2024-03-22T06:13:54;7.70;98.90
21676;DHT22;10999;51.332;9.458;2024-03-22T06:16:20;7.70;98.50
21676;DHT22;10999;51.332;9.458;2024-03-22T06:18:46;7.80;98.20
21676;DHT22;10999;51.332;9.458;2024-03-22T06:21:12;7.80;98.00
21676;DHT22;10999;51.332;9.458;2024-03-22T06:23:40;7.80;97.90
21676;DHT22;10999;51.332;9.458;2024-03-22T06:26:07;7.80;97.90
21676;DHT22;10999;51.332;9.458;2024-03-22T06:28:33;7.90;97.50
21676;DHT22;10999;51.332;9.458;2024-03-22T06:30:58;8.00;97.20
21676;DHT22;10999;51.332;9.458;2024-03-22T06:33:24;8.00;97.10
21676;DHT22;10999;51.332;9.458;2024-03-22T06:35:50;8.00;96.80
21676;DHT22;10999;51.332;9.458;2024-03-22T06:38:16;8.10;97.00
21676;DHT22;10999;51.332;9.458;2024-03-22T06:40:41;8.00;96.70
21676;DHT22;10999;51.332;9.458;2024-03-22T06:43:07;8.10;96.30
21676;DHT22;10999;51.332;9.458;2024-03-22T06:45:34;8.10;96.50
21676;DHT22;10999;51.332;9.458;2024-03-22T06:48:00;8.10;96.50
21676;DHT22;10999;51.332;9.458;2024-03-22T06:50:25;8.20;96.20
21676;DHT22;10999;51.332;9.458;2024-03-22T06:52:54;8.20;96.20
21676;DHT22;10999;51.332;9.458;2024-03-22T06:55:20;8.20;96.00
21676;DHT22;10999;51.332;9.458;2024-03-22T06:57:48;8.30;95.70
21676;DHT22;10999;51.332;9.458;2024-03-22T07:00:14;8.30;95.50
21676;DHT22;10999;51.332;9.458;2024-03-22T07:02:40;8.40;95.30
21676;DHT22;10999;51.332;9.458;2024-03-22T07:05:07;8.50;94.70
21676;DHT22;10999;51.332;9.458;2024-03-22T07:07:34;8.60;94.40
21676;DHT22;10999;51.332;9.458;2024-03-22T07:10:00;8.60;93.80
21676;DHT22;10999;51.332;9.458;2024-03-22T07:12:25;8.60;93.50
21676;DHT22;10999;51.332;9.458;2024-03-22T07:14:51;8.70;93.40
21676;DHT22;10999;51.332;9.458;2024-03-22T07:17:17;8.80;93.30
21676;DHT22;10999;51.332;9.458;2024-03-22T07:19:43;8.80;92.50
21676;DHT22;10999;51.332;9.458;2024-03-22T07:22:09;8.90;92.20
21676;DHT22;10999;51.332;9.458;2024-03-22T07:24:34;9.00;92.00
21676;DHT22;10999;51.332;9.458;2024-03-22T07:27:00;9.00;92.00
21676;DHT22;10999;51.332;9.458;2024-03-22T07:29:26;9.10;91.90
21676;DHT22;10999;51.332;9.458;2024-03-22T07:31:52;9.10;91.50
21676;DHT22;10999;51.332;9.458;2024-03-22T07:34:17;9.20;90.60
21676;DHT22;10999;51.332;9.458;2024-03-22T07:36:43;9.20;90.40
21676;DHT22;10999;51.332;9.458;2024-03-22T07:39:09;9.30;90.60
21676;DHT22;10999;51.332;9.458;2024-03-22T07:41:35;9.40;90.90
21676;DHT22;10999;51.332;9.458;2024-03-22T07:44:01;9.60;90.60
21676;DHT22;10999;51.332;9.458;2024-03-22T07:46:28;9.70;87.70
21676;DHT22;10999;51.332;9.458;2024-03-22T07:48:54;9.80;87.50
21676;DHT22;10999;51.332;9.458;2024-03-22T07:51:20;10.00;86.60
21676;DHT22;10999;51.332;9.458;2024-03-22T07:53:46;10.10;86.60
21676;DHT22;10999;51.332;9.458;2024-03-22T07:56:15;10.00;84.50
21676;DHT22;10999;51.332;9.458;2024-03-22T07:58:46;10.10;86.30
21676;DHT22;10999;51.332;9.458;2024-03-22T08:01:15;10.10;85.40
21676;DHT22;10999;51.332;9.458;2024-03-22T08:03:54;10.20;85.20
21676;DHT22;10999;51.332;9.458;2024-03-22T08:06:27;10.20;84.60
21676;DHT22;10999;51.332;9.458;2024-03-22T08:08:52;10.20;84.20
21676;DHT22;10999;51.332;9.458;2024-03-22T08:11:18;10.30;84.90
21676;DHT22;10999;51.332;9.458;2024-03-22T08:13:44;10.50;84.40
21676;DHT22;10999;51.332;9.458;2024-03-22T08:16:09;10.50;83.30
21676;DHT22;10999;51.332;9.458;2024-03-22T08:18:35;10.60;82.30
21676;DHT22;10999;51.332;9.458;2024-03-22T08:21:01;10.70;81.60
21676;DHT22;10999;51.332;9.458;2024-03-22T08:23:28;10.80;81.70
21676;DHT22;10999;51.332;9.458;2024-03-22T08:25:53;11.20;81.30
21676;DHT22;10999;51.332;9.458;2024-03-22T08:28:19;11.40;79.60
21676;DHT22;10999;51.332;9.458;2024-03-22T08:30:45;11.50;76.30
21676;DHT22;10999;51.332;9.458;2024-03-22T08:33:12;11.50;75.40
21676;DHT22;10999;51.332;9.458;2024-03-22T08:35:39;11.40;76.50
21676;DHT22;10999;51.332;9.458;2024-03-22T08:38:05;11.40;77.30
21676;DHT22;10999;51.332;9.458;2024-03-22T08:40:38;11.20;77.10
21676;DHT22;10999;51.332;9.458;2024-03-22T08:43:05;11.10;79.30
21676;DHT22;10999;51.332;9.458;2024-03-22T08:45:33;11.10;79.40
21676;DHT22;10999;51.332;9.458;2024-03-22T08:47:59;11.20;81.20
21676;DHT22;10999;51.332;9.458;2024-03-22T08:50:25;11.20;81.20
21676;DHT22;10999;51.332;9.458;2024-03-22T08:52:50;11.20;79.80
21676;DHT22;10999;51.332;9.458;2024-03-22T08:55:17;11.20;80.90
21676;DHT22;10999;51.332;9.458;2024-03-22T08:57:43;11.20;80.60
21676;DHT22;10999;51.332;9.458;2024-03-22T09:00:09;11.20;80.00
21676;DHT22;10999;51.332;9.458;2024-03-22T09:02:35;11.30;80.70
21676;DHT22;10999;51.332;9.458;2024-03-22T09:05:01;11.30;80.50
21676;DHT22;10999;51.332;9.458;2024-03-22T09:07:26;11.10;79.80
21676;DHT22;10999;51.332;9.458;2024-03-22T09:09:52;11.10;80.20
21676;DHT22;10999;51.332;9.458;2024-03-22T09:12:19;11.20;81.80
21676;DHT22;10999;51.332;9.458;2024-03-22T09:14:45;11.20;80.70
21676;DHT22;10999;51.332;9.458;2024-03-22T09:17:10;11.20;80.70
21676;DHT22;10999;51.332;9.458;2024-03-22T09:19:36;11.30;80.60
21676;DHT22;10999;51.332;9.458;2024-03-22T09:22:02;11.20;80.80
21676;DHT22;10999;51.332;9.458;2024-03-22T09:24:28;11.20;82.10
21676;DHT22;10999;51.332;9.458;2024-03-22T09:26:54;11.20;82.10
21676;DHT22;10999;51.332;9.458;2024-03-22T09:29:20;11.30;81.50
21676;DHT22;10999;51.332;9.458;2024-03-22T09:31:46;11.30;82.10
21676;DHT22;10999;51.332;9.458;2024-03-22T09:34:12;11.30;81.50
21676;DHT22;10999;51.332;9.458;2024-03-22T09:36:41;11.40;81.70
21676;DHT22;10999;51.332;9.458;2024-03-22T09:39:06;11.40;82.00
21676;DHT22;10999;51.332;9.458;2024-03-22T09:41:38;11.20;81.60
21676;DHT22;10999;51.332;9.458;2024-03-22T09:44:06;11.30;82.30
21676;DHT22;10999;51.332;9.458;2024-03-22T09:46:33;11.30;82.00
21676;DHT22;10999;51.332;9.458;2024-03-22T09:49:01;11.40;82.10
21676;DHT22;10999;51.332;9.458;2024-03-22T09:51:27;11.40;82.10
21676;DHT22;10999;51.332;9.458;2024-03-22T09:53:54;11.60;82.90
21676;DHT22;10999;51.332;9.458;2024-03-22T09:56:21;11.80;84.10
21676;DHT22;10999;51.332;9.458;2024-03-22T09:58:47;11.90;80.30
21676;DHT22;10999;51.332;9.458;2024-03-22T10:01:13;12.10;79.90
21676;DHT22;10999;51.332;9.458;2024-03-22T10:03:39;12.20;79.70
21676;DHT22;10999;51.332;9.458;2024-03-22T10:06:06;12.40;77.20
21676;DHT22;10999;51.332;9.458;2024-03-22T10:08:31;12.60;77.00
21676;DHT22;10999;51.332;9.458;2024-03-22T10:11:01;12.70;77.50
21676;DHT22;10999;51.332;9.458;2024-03-22T10:13:26;12.90;77.10
21676;DHT22;10999;51.332;9.458;2024-03-22T10:15:52;12.90;74.10
21676;DHT22;10999;51.332;9.458;2024-03-22T10:18:18;12.90;73.90
21676;DHT22;10999;51.332;9.458;2024-03-22T10:20:44;12.80;74.00
21676;DHT22;10999;51.332;9.458;2024-03-22T10:23:10;12.70;75.20
21676;DHT22;10999;51.332;9.458;2024-03-22T10:25:36;12.80;75.60
21676;DHT22;10999;51.332;9.458;2024-03-22T10:28:02;12.90;75.80
21676;DHT22;10999;51.332;9.458;2024-03-22T10:30:29;13.00;74.70
21676;DHT22;10999;51.332;9.458;2024-03-22T10:32:56;13.00;72.90
21676;DHT22;10999;51.332;9.458;2024-03-22T10:35:23;13.10;74.20
21676;DHT22;10999;51.332;9.458;2024-03-22T10:37:50;13.20;75.10
21676;DHT22;10999;51.332;9.458;2024-03-22T10:40:16;13.30;73.00
21676;DHT22;10999;51.332;9.458;2024-03-22T10:42:42;13.40;73.40
21676;DHT22;10999;51.332;9.458;2024-03-22T10:45:09;13.50;72.50
21676;DHT22;10999;51.332;9.458;2024-03-22T10:47:37;13.60;69.60
21676;DHT22;10999;51.332;9.458;2024-03-22T10:50:10;13.70;70.10
21676;DHT22;10999;51.332;9.458;2024-03-22T10:52:47;13.80;71.20
21676;DHT22;10999;51.332;9.458;2024-03-22T10:55:37;13.90;69.70
21676;DHT22;10999;51.332;9.458;2024-03-22T10:58:04;14.10;68.90
21676;DHT22;10999;51.332;9.458;2024-03-22T11:00:32;14.20;65.80
21676;DHT22;10999;51.332;9.458;2024-03-22T11:02:58;14.30;66.10
21676;DHT22;10999;51.332;9.458;2024-03-22T11:05:25;14.30;65.00
21676;DHT22;10999;51.332;9.458;2024-03-22T11:08:04;14.30;65.90
21676;DHT22;10999;51.332;9.458;2024-03-22T11:10:34;14.30;65.80
21676;DHT22;10999;51.332;9.458;2024-03-22T11:13:04;14.40;65.20
21676;DHT22;10999;51.332;9.458;2024-03-22T11:15:30;14.50;65.00
21676;DHT22;10999;51.332;9.458;2024-03-22T11:17:57;14.50;64.80
21676;DHT22;10999;51.332;9.458;2024-03-22T11:20:23;14.70;64.30
21676;DHT22;10999;51.332;9.458;2024-03-22T11:22:50;14.90;64.60
21676;DHT22;10999;51.332;9.458;2024-03-22T11:25:16;15.10;62.60
21676;DHT22;10999;51.332;9.458;2024-03-22T11:27:42;15.30;57.10
21676;DHT22;10999;51.332;9.458;2024-03-22T11:30:08;15.40;56.20
21676;DHT22;10999;51.332;9.458;2024-03-22T11:32:34;15.60;55.40
21676;DHT22;10999;51.332;9.458;2024-03-22T11:35:13;15.70;55.60
21676;DHT22;10999;51.332;9.458;2024-03-22T11:37:39;15.90;53.10
21676;DHT22;10999;51.332;9.458;2024-03-22T11:40:08;15.90;51.70
21676;DHT22;10999;51.332;9.458;2024-03-22T11:42:46;15.90;49.70
21676;DHT22;10999;51.332;9.458;2024-03-22T11:45:15;15.90;50.70
21676;DHT22;10999;51.332;9.458;2024-03-22T11:47:41;15.80;48.80
21676;DHT22;10999;51.332;9.458;2024-03-22T11:50:07;15.80;48.40
21676;DHT22;10999;51.332;9.458;2024-03-22T11:52:35;15.80;49.80
21676;DHT22;10999;51.332;9.458;2024-03-22T11:55:01;15.90;51.50
21676;DHT22;10999;51.332;9.458;2024-03-22T11:57:27;15.80;55.40
21676;DHT22;10999;51.332;9.458;2024-03-22T11:59:59;15.70;55.90
21676;DHT22;10999;51.332;9.458;2024-03-22T12:02:25;15.60;55.40
21676;DHT22;10999;51.332;9.458;2024-03-22T12:04:51;15.40;56.30
21676;DHT22;10999;51.332;9.458;2024-03-22T12:07:17;15.30;58.10
21676;DHT22;10999;51.332;9.458;2024-03-22T12:09:46;15.30;59.70
21676;DHT22;10999;51.332;9.458;2024-03-22T12:12:12;15.30;58.70
21676;DHT22;10999;51.332;9.458;2024-03-22T12:14:39;15.30;58.20
21676;DHT22;10999;51.332;9.458;2024-03-22T12:17:06;15.30;57.80
21676;DHT22;10999;51.332;9.458;2024-03-22T12:19:32;15.40;59.20
21676;DHT22;10999;51.332;9.458;2024-03-22T12:21:58;15.50;59.70
21676;DHT22;10999;51.332;9.458;2024-03-22T12:24:24;15.60;59.20
21676;DHT22;10999;51.332;9.458;2024-03-22T12:26:50;15.60;59.00
21676;DHT22;10999;51.332;9.458;2024-03-22T12:29:16;15.70;59.80
21676;DHT22;10999;51.332;9.458;2024-03-22T12:31:43;15.80;54.50
21676;DHT22;10999;51.332;9.458;2024-03-22T12:34:09;15.80;44.90
21676;DHT22;10999;51.332;9.458;2024-03-22T12:36:34;15.90;44.80
21676;DHT22;10999;51.332;9.458;2024-03-22T12:39:00;16.10;43.60
21676;DHT22;10999;51.332;9.458;2024-03-22T12:41:27;16.20;40.50
21676;DHT22;10999;51.332;9.458;2024-03-22T12:43:52;16.20;42.20
21676;DHT22;10999;51.332;9.458;2024-03-22T12:46:18;16.30;40.90
21676;DHT22;10999;51.332;9.458;2024-03-22T12:48:44;16.30;40.20
21676;DHT22;10999;51.332;9.458;2024-03-22T12:51:10;16.30;39.50
21676;DHT22;10999;51.332;9.458;2024-03-22T12:53:35;16.30;38.90
21676;DHT22;10999;51.332;9.458;2024-03-22T12:56:01;16.30;38.40
21676;DHT22;10999;51.332;9.458;2024-03-22T12:58:30;16.30;39.00
21676;DHT22;10999;51.332;9.458;2024-03-22T13:00:57;16.40;46.70
21676;DHT22;10999;51.332;9.458;2024-03-22T13:03:22;16.50;49.60
21676;DHT22;10999;51.332;9.458;2024-03-22T13:05:48;16.60;51.00
21676;DHT22;10999;51.332;9.458;2024-03-22T13:08:14;16.50;50.80
21676;DHT22;10999;51.332;9.458;2024-03-22T13:10:40;16.50;48.30
21676;DHT22;10999;51.332;9.458;2024-03-22T13:13:09;16.40;39.30
21676;DHT22;10999;51.332;9.458;2024-03-22T13:15:35;16.30;42.30
21676;DHT22;10999;51.332;9.458;2024-03-22T13:18:06;16.30;43.40
21676;DHT22;10999;51.332;9.458;2024-03-22T13:20:34;16.30;40.00
21676;DHT22;10999;51.332;9.458;2024-03-22T13:23:00;16.30;40.30
21676;DHT22;10999;51.332;9.458;2024-03-22T13:25:26;16.30;44.20
21676;DHT22;10999;51.332;9.458;2024-03-22T13:27:52;16.30;44.60
21676;DHT22;10999;51.332;9.458;2024-03-22T13:30:18;16.40;41.30
21676;DHT22;10999;51.332;9.458;2024-03-22T13:32:44;16.30;39.20
21676;DHT22;10999;51.332;9.458;2024-03-22T13:35:10;16.20;37.40
21676;DHT22;10999;51.332;9.458;2024-03-22T13:37:35;16.20;36.60
21676;DHT22;10999;51.332;9.458;2024-03-22T13:40:01;16.10;36.20
21676;DHT22;10999;51.332;9.458;2024-03-22T13:42:27;16.00;36.40
21676;DHT22;10999;51.332;9.458;2024-03-22T13:44:53;16.00;34.40
21676;DHT22;10999;51.332;9.458;2024-03-22T13:47:18;16.00;34.90
21676;DHT22;10999;51.332;9.458;2024-03-22T13:49:44;16.00;34.90
21676;DHT22;10999;51.332;9.458;2024-03-22T13:52:10;15.90;35.70
21676;DHT22;10999;51.332;9.458;2024-03-22T13:54:36;15.90;37.70
21676;DHT22;10999;51.332;9.458;2024-03-22T13:57:02;15.90;38.30
21676;DHT22;10999;51.332;9.458;2024-03-22T13:59:28;15.90;40.40
21676;DHT22;10999;51.332;9.458;2024-03-22T14:01:55;15.70;40.50
21676;DHT22;10999;51.332;9.458;2024-03-22T14:04:22;15.60;41.50
21676;DHT22;10999;51.332;9.458;2024-03-22T14:06:48;15.40;41.80
21676;DHT22;10999;51.332;9.458;2024-03-22T14:09:14;15.30;42.90
21676;DHT22;10999;51.332;9.458;2024-03-22T14:11:41;15.20;44.40
21676;DHT22;10999;51.332;9.458;2024-03-22T14:14:09;15.00;45.10
21676;DHT22;10999;51.332;9.458;2024-03-22T14:16:40;15.00;43.70
21676;DHT22;10999;51.332;9.458;2024-03-22T14:19:10;15.00;43.20
21676;DHT22;10999;51.332;9.458;2024-03-22T14:21:36;15.00;43.70
21676;DHT22;10999;51.332;9.458;2024-03-22T14:24:04;15.00;43.60
21676;DHT22;10999;51.332;9.458;2024-03-22T14:26:30;15.10;42.00
21676;DHT22;10999;51.332;9.458;2024-03-22T14:28:55;15.10;39.70
21676;DHT22;10999;51.332;9.458;2024-03-22T14:31:21;15.20;40.90
21676;DHT22;10999;51.332;9.458;2024-03-22T14:33:48;15.20;39.60
21676;DHT22;10999;51.332;9.458;2024-03-22T14:36:13;15.30;40.30
21676;DHT22;10999;51.332;9.458;2024-03-22T14:38:39;15.30;40.40
21676;DHT22;10999;51.332;9.458;2024-03-22T14:41:05;15.30;40.60
21676;DHT22;10999;51.332;9.458;2024-03-22T14:43:31;15.30;40.00
21676;DHT22;10999;51.332;9.458;2024-03-22T14:46:01;15.40;40.00
21676;DHT22;10999;51.332;9.458;2024-03-22T14:48:30;15.30;39.70
21676;DHT22;10999;51.332;9.458;2024-03-22T14:50:56;15.30;39.30
21676;DHT22;10999;51.332;9.458;2024-03-22T14:53:22;15.30;39.90
21676;DHT22;10999;51.332;9.458;2024-03-22T14:55:58;15.30;40.60
21676;DHT22;10999;51.332;9.458;2024-03-22T14:58:25;15.30;40.80
21676;DHT22;10999;51.332;9.458;2024-03-22T15:00:55;15.30;39.90
21676;DHT22;10999;51.332;9.458;2024-03-22T15:03:21;15.30;39.30
21676;DHT22;10999;51.332;9.458;2024-03-22T15:05:51;15.30;40.40
21676;DHT22;10999;51.332;9.458;2024-03-22T15:08:18;15.30;40.20
21676;DHT22;10999;51.332;9.458;2024-03-22T15:10:44;15.30;39.20
21676;DHT22;10999;51.332;9.458;2024-03-22T15:13:10;15.20;39.20
21676;DHT22;10999;51.332;9.458;2024-03-22T15:15:36;15.20;38.90
21676;DHT22;10999;51.332;9.458;2024-03-22T15:18:02;15.10;39.60
21676;DHT22;10999;51.332;9.458;2024-03-22T15:20:28;15.10;39.50
21676;DHT22;10999;51.332;9.458;2024-03-22T15:22:55;15.10;39.80
21676;DHT22;10999;51.332;9.458;2024-03-22T15:25:21;15.00;39.70
21676;DHT22;10999;51.332;9.458;2024-03-22T15:27:47;15.00;39.90
21676;DHT22;10999;51.332;9.458;2024-03-22T15:30:13;14.90;40.60
21676;DHT22;10999;51.332;9.458;2024-03-22T15:32:40;14.90;41.20